createdAt,value
2018-05-11T00:02:33.113Z,13.40
2018-05-11T00:05:31.118Z,13.30
2018-05-11T00:08:28.852Z,13.30
2018-05-11T00:11:26.591Z,13.40
2018-05-11T00:14:24.391Z,13.40
2018-05-11T00:17:22.261Z,13.40
2018-05-11T00:20:19.965Z,13.40
2018-05-11T00:23:17.803Z,13.30
2018-05-11T00:26:15.602Z,13.30
2018-05-11T00:29:13.634Z,13.20
2018-05-11T00:32:11.828Z,13.10
2018-05-11T00:35:09.747Z,13.10
2018-05-11T00:38:07.948Z,13.30
2018-05-11T00:41:05.902Z,13.20
2018-05-11T00:44:03.768Z,13.20
2018-05-11T00:47:01.857Z,13.20
2018-05-11T00:49:59.806Z,13.30
2018-05-11T00:52:57.749Z,13.30
2018-05-11T00:56:03.847Z,13.40
2018-05-11T00:59:01.847Z,13.40
2018-05-11T01:01:59.739Z,13.30
2018-05-11T01:04:57.742Z,13.30
2018-05-11T01:07:55.891Z,13.30
2018-05-11T01:10:54.595Z,13.20
2018-05-11T01:13:52.500Z,13.30
2018-05-11T01:16:50.312Z,13.30
2018-05-11T01:19:47.923Z,13.40
2018-05-11T01:22:45.729Z,13.40
2018-05-11T01:25:43.403Z,13.40
2018-05-11T01:28:41.433Z,13.30
2018-05-11T01:31:39.291Z,13.30
2018-05-11T01:34:37.112Z,13.40
2018-05-11T01:37:34.810Z,13.40
2018-05-11T01:40:32.484Z,13.40
2018-05-11T01:43:30.640Z,13.50
2018-05-11T01:46:28.699Z,13.40
2018-05-11T01:49:26.706Z,13.50
2018-05-11T01:52:24.787Z,13.40
2018-05-11T01:55:21.878Z,13.40
2018-05-11T01:58:19.725Z,13.40
2018-05-11T02:01:17.637Z,13.40
2018-05-11T02:04:14.660Z,13.40
2018-05-11T02:07:12.528Z,13.30
2018-05-11T02:10:10.389Z,13.30
2018-05-11T02:13:07.511Z,13.20
2018-05-11T02:16:05.387Z,13.30
2018-05-11T02:19:02.783Z,13.40
2018-05-11T02:22:00.624Z,13.30
2018-05-11T02:24:58.587Z,13.30
2018-05-11T02:27:55.755Z,13.40
2018-05-11T02:30:53.686Z,13.40
2018-05-11T02:33:51.538Z,13.30
2018-05-11T02:36:49.552Z,13.30
2018-05-11T02:39:46.826Z,13.30
2018-05-11T02:42:44.790Z,13.40
2018-05-11T02:45:42.404Z,13.40
2018-05-11T02:48:40.279Z,13.40
2018-05-11T02:51:38.194Z,13.40
2018-05-11T02:54:36.077Z,13.40
2018-05-11T02:57:33.827Z,13.40
2018-05-11T03:00:31.261Z,13.40
2018-05-11T03:03:29.580Z,13.50
2018-05-11T03:06:27.517Z,13.50
2018-05-11T03:09:25.179Z,13.50
2018-05-11T03:12:22.453Z,13.60
2018-05-11T03:15:20.404Z,13.50
2018-05-11T03:18:18.393Z,13.60
2018-05-11T03:21:16.128Z,13.60
2018-05-11T03:24:14.153Z,13.60
2018-05-11T03:27:13.139Z,13.70
2018-05-11T03:30:11.014Z,13.70
2018-05-11T03:33:08.147Z,13.70
2018-05-11T03:36:06.226Z,13.90
2018-05-11T03:39:04.194Z,13.80
2018-05-11T03:42:01.344Z,13.90
2018-05-11T03:44:59.222Z,14.00
2018-05-11T03:47:57.267Z,14.00
2018-05-11T03:50:55.237Z,14.00
2018-05-11T03:53:53.332Z,14.00
2018-05-11T03:56:51.941Z,14.10
2018-05-11T03:59:49.895Z,14.10
2018-05-11T04:02:59.583Z,14.20
2018-05-11T04:06:09.575Z,14.20
2018-05-11T04:09:15.520Z,14.30
2018-05-11T04:12:13.424Z,14.40
2018-05-11T04:15:11.641Z,14.50
2018-05-11T04:18:08.782Z,14.40
2018-05-11T04:21:06.163Z,14.60
2018-05-11T04:24:04.127Z,14.60
2018-05-11T04:27:02.185Z,14.70
2018-05-11T04:30:00.084Z,14.80
2018-05-11T04:32:58.034Z,14.80
2018-05-11T04:35:55.153Z,15.00
2018-05-11T04:38:52.190Z,15.20
2018-05-11T04:41:49.758Z,15.30
2018-05-11T04:44:47.555Z,15.40
2018-05-11T04:47:45.347Z,15.40
2018-05-11T04:50:42.642Z,15.40
2018-05-11T04:53:40.523Z,15.40
2018-05-11T04:56:38.245Z,15.50
2018-05-11T04:59:36.210Z,15.50
2018-05-11T05:02:34.035Z,15.60
2018-05-11T05:05:31.974Z,15.60
2018-05-11T05:08:29.817Z,15.70
2018-05-11T05:11:27.716Z,15.80
2018-05-11T05:14:25.930Z,15.90
2018-05-11T05:17:23.974Z,16.00
2018-05-11T05:20:21.799Z,16.10
2018-05-11T05:23:19.732Z,16.20
2018-05-11T05:26:16.837Z,16.30
2018-05-11T05:29:14.850Z,16.40
2018-05-11T05:32:12.802Z,16.50
2018-05-11T05:35:10.088Z,16.50
2018-05-11T05:38:10.497Z,16.70
2018-05-11T05:41:09.090Z,16.60
2018-05-11T05:44:07.339Z,16.80
2018-05-11T05:47:04.798Z,16.90
2018-05-11T05:50:02.682Z,17.10
2018-05-11T05:52:59.753Z,17.10
2018-05-11T05:55:57.705Z,17.30
2018-05-11T05:58:55.484Z,17.50
2018-05-11T06:01:53.428Z,17.60
2018-05-11T06:04:51.539Z,17.80
2018-05-11T06:07:49.015Z,17.80
2018-05-11T06:10:46.129Z,18.00
2018-05-11T06:13:43.403Z,18.10
2018-05-11T06:16:40.463Z,18.20
2018-05-11T06:19:38.488Z,18.20
2018-05-11T06:22:35.871Z,18.30
2018-05-11T06:25:33.884Z,18.30
2018-05-11T06:28:31.839Z,18.40
2018-05-11T06:31:28.855Z,18.50
2018-05-11T06:34:26.066Z,18.70
2018-05-11T06:37:24.175Z,18.80
2018-05-11T06:40:22.192Z,20.30
2018-05-11T06:43:20.015Z,20.30
2018-05-11T06:46:17.804Z,21.70
2018-05-11T06:49:16.488Z,22.80
2018-05-11T06:52:13.630Z,22.80
2018-05-11T06:55:10.687Z,23.10
2018-05-11T06:58:08.759Z,23.80
2018-05-11T07:01:06.855Z,23.80
2018-05-11T07:04:04.872Z,23.80
2018-05-11T07:07:02.731Z,23.80
2018-05-11T07:09:59.881Z,24.50
2018-05-11T07:12:57.682Z,24.20
2018-05-11T07:15:55.628Z,24.40
2018-05-11T07:18:53.241Z,24.10
2018-05-11T07:21:51.286Z,24.70
2018-05-11T07:24:49.243Z,24.70
2018-05-11T07:27:47.186Z,24.30
2018-05-11T07:30:45.071Z,23.60
2018-05-11T07:33:42.775Z,23.60
2018-05-11T07:36:40.774Z,23.90
2018-05-11T07:39:37.958Z,24.90
2018-05-11T07:42:35.803Z,25.50
2018-05-11T07:45:33.021Z,25.30
2018-05-11T07:48:30.796Z,25.40
2018-05-11T07:51:28.837Z,25.20
2018-05-11T07:54:26.655Z,25.30
2018-05-11T07:57:24.636Z,25.40
2018-05-11T08:00:22.444Z,25.10
2018-05-11T08:03:19.671Z,25.40
2018-05-11T08:06:17.562Z,25.80
2018-05-11T08:09:15.593Z,26.70
2018-05-11T08:12:13.535Z,26.60
2018-05-11T08:15:11.605Z,27.60
2018-05-11T08:18:09.417Z,27.80
2018-05-11T08:21:07.359Z,27.30
2018-05-11T08:24:06.049Z,26.50
2018-05-11T08:27:03.474Z,27.00
2018-05-11T08:30:00.697Z,26.90
2018-05-11T08:32:57.876Z,26.60
2018-05-11T08:35:55.002Z,26.80
2018-05-11T08:38:53.040Z,26.50
2018-05-11T08:41:52.040Z,25.70
2018-05-11T08:44:50.089Z,25.70
2018-05-11T08:47:48.008Z,26.40
2018-05-11T08:50:45.900Z,26.10
2018-05-11T08:53:43.878Z,25.80
2018-05-11T08:56:40.925Z,25.80
2018-05-11T08:59:38.005Z,26.10
2018-05-11T09:02:35.906Z,26.70
2018-05-11T09:05:33.950Z,26.90
2018-05-11T09:08:33.027Z,26.60
2018-05-11T09:11:30.368Z,25.90
2018-05-11T09:14:28.217Z,26.20
2018-05-11T09:17:25.365Z,26.10
2018-05-11T09:20:23.321Z,25.60
2018-05-11T09:23:21.378Z,26.60
2018-05-11T09:26:19.071Z,26.20
2018-05-11T09:29:16.942Z,27.70
2018-05-11T09:32:14.863Z,28.00
2018-05-11T09:35:12.777Z,27.90
2018-05-11T09:38:10.105Z,26.90
2018-05-11T09:41:07.939Z,28.40
2018-05-11T09:44:04.974Z,28.30
2018-05-11T09:47:02.188Z,28.50
2018-05-11T09:50:00.004Z,27.80
2018-05-11T09:52:57.950Z,27.60
2018-05-11T09:55:55.796Z,27.40
2018-05-11T09:58:52.981Z,27.20
2018-05-11T10:01:50.789Z,27.20
2018-05-11T10:04:49.599Z,26.50
2018-05-11T10:07:46.677Z,26.30
2018-05-11T10:10:44.505Z,26.80
2018-05-11T10:13:43.404Z,26.50
2018-05-11T10:16:41.213Z,26.30
2018-05-11T10:19:39.100Z,26.50
2018-05-11T10:22:36.960Z,26.50
2018-05-11T10:25:34.647Z,26.90
2018-05-11T10:28:32.570Z,27.90
2018-05-11T10:31:30.571Z,27.80
2018-05-11T10:34:28.544Z,27.60
2018-05-11T10:37:26.280Z,27.60
2018-05-11T10:40:24.117Z,26.80
2018-05-11T10:43:22.129Z,27.80
2018-05-11T10:46:20.008Z,27.00
2018-05-11T10:49:18.818Z,26.30
2018-05-11T10:52:16.824Z,25.30
2018-05-11T10:55:14.438Z,24.50
2018-05-11T10:58:12.270Z,24.70
2018-05-11T11:01:10.233Z,24.90
2018-05-11T11:04:08.273Z,25.40
2018-05-11T11:07:06.024Z,25.80
2018-05-11T11:10:03.893Z,24.70
2018-05-11T11:13:01.864Z,24.70
2018-05-11T11:15:59.736Z,24.50
2018-05-11T11:18:57.521Z,25.10
2018-05-11T11:21:55.594Z,25.00
2018-05-11T11:24:53.407Z,25.00
2018-05-11T11:27:51.253Z,26.60
2018-05-11T11:30:48.163Z,26.60
2018-05-11T11:33:46.078Z,26.10
2018-05-11T11:36:44.087Z,25.60
2018-05-11T11:39:41.914Z,25.70
2018-05-11T11:42:39.200Z,25.90
2018-05-11T11:45:36.966Z,26.60
2018-05-11T11:48:34.857Z,25.50
2018-05-11T11:51:32.101Z,25.20
2018-05-11T11:54:29.984Z,24.50
2018-05-11T11:57:27.811Z,24.50
2018-05-11T12:00:25.707Z,24.50
2018-05-11T12:03:23.646Z,23.90
2018-05-11T12:06:22.248Z,24.70
2018-05-11T12:09:19.266Z,24.70
2018-05-11T12:12:17.158Z,24.30
2018-05-11T12:15:15.484Z,24.00
2018-05-11T12:18:12.513Z,24.00
2018-05-11T12:21:09.598Z,24.30
2018-05-11T12:24:07.581Z,24.80
2018-05-11T12:27:05.324Z,24.70
2018-05-11T12:30:02.935Z,25.10
2018-05-11T12:33:00.729Z,25.00
2018-05-11T12:35:57.919Z,24.60
2018-05-11T12:38:55.706Z,24.90
2018-05-11T12:41:53.707Z,25.00
2018-05-11T12:44:51.519Z,24.70
2018-05-11T12:47:49.430Z,24.70
2018-05-11T12:50:47.483Z,24.50
2018-05-11T12:53:45.316Z,25.00
2018-05-11T12:56:43.183Z,24.50
2018-05-11T12:59:41.176Z,24.50
2018-05-11T13:02:38.991Z,24.40
2018-05-11T13:05:36.912Z,24.50
2018-05-11T13:08:34.799Z,24.20
2018-05-11T13:11:32.773Z,24.70
2018-05-11T13:14:30.715Z,24.50
2018-05-11T13:17:28.844Z,24.60
2018-05-11T13:20:26.911Z,24.60
2018-05-11T13:23:24.903Z,24.60
2018-05-11T13:26:23.041Z,24.80
2018-05-11T13:29:21.025Z,24.80
2018-05-11T13:32:18.965Z,24.60
2018-05-11T13:35:17.069Z,24.30
2018-05-11T13:38:14.897Z,24.30
2018-05-11T13:41:12.998Z,24.30
2018-05-11T13:44:10.881Z,24.10
2018-05-11T13:47:08.776Z,24.30
2018-05-11T13:50:06.900Z,24.40
2018-05-11T13:53:04.841Z,24.30
2018-05-11T13:56:02.855Z,24.10
2018-05-11T13:59:00.840Z,24.00
2018-05-11T14:01:59.063Z,23.80
2018-05-11T14:04:56.497Z,23.70
2018-05-11T14:07:54.556Z,23.30
2018-05-11T14:10:52.492Z,23.00
2018-05-11T14:13:50.350Z,23.20
2018-05-11T14:16:47.401Z,23.20
2018-05-11T14:19:44.845Z,23.20
2018-05-11T14:22:41.880Z,23.10
2018-05-11T14:25:39.065Z,23.10
2018-05-11T14:28:36.856Z,23.30
2018-05-11T14:31:34.861Z,23.40
2018-05-11T14:34:31.973Z,23.30
2018-05-11T14:37:30.170Z,23.00
2018-05-11T14:40:28.169Z,23.00
2018-05-11T14:43:26.146Z,23.30
2018-05-11T14:46:24.020Z,23.50
2018-05-11T14:49:21.342Z,23.20
2018-05-11T14:52:19.293Z,22.90
2018-05-11T14:55:18.272Z,22.90
2018-05-11T14:58:16.068Z,22.80
2018-05-11T15:01:13.977Z,22.50
2018-05-11T15:04:13.124Z,22.30
2018-05-11T15:07:11.297Z,22.20
2018-05-11T15:10:09.084Z,22.20
2018-05-11T15:13:06.932Z,22.50
2018-05-11T15:16:05.176Z,22.40
2018-05-11T15:19:02.979Z,22.20
2018-05-11T15:22:00.623Z,22.10
2018-05-11T15:24:58.329Z,21.90
2018-05-11T15:27:56.194Z,21.90
2018-05-11T15:30:54.087Z,21.70
2018-05-11T15:33:52.222Z,21.80
2018-05-11T15:36:50.071Z,21.70
2018-05-11T15:39:47.947Z,21.70
2018-05-11T15:42:45.728Z,21.60
2018-05-11T15:45:43.682Z,21.60
2018-05-11T15:48:40.925Z,21.50
2018-05-11T15:51:37.979Z,21.30
2018-05-11T15:54:35.976Z,21.00
2018-05-11T15:57:33.866Z,20.90
2018-05-11T16:00:31.795Z,20.90
2018-05-11T16:03:29.623Z,20.90
2018-05-11T16:06:26.764Z,20.80
2018-05-11T16:09:23.824Z,20.70
2018-05-11T16:12:21.720Z,20.80
2018-05-11T16:15:18.789Z,20.80
2018-05-11T16:18:16.804Z,20.80
2018-05-11T16:21:13.816Z,20.60
2018-05-11T16:24:10.828Z,20.50
2018-05-11T16:27:08.868Z,20.60
2018-05-11T16:30:06.048Z,20.60
2018-05-11T16:33:03.877Z,20.60
2018-05-11T16:36:00.958Z,20.50
2018-05-11T16:38:58.820Z,20.50
2018-05-11T16:41:56.591Z,20.40
2018-05-11T16:44:54.411Z,20.30
2018-05-11T16:47:52.323Z,20.20
2018-05-11T16:50:50.045Z,20.20
2018-05-11T16:53:48.899Z,20.10
2018-05-11T16:56:46.844Z,20.20
2018-05-11T16:59:44.716Z,19.80
2018-05-11T17:02:43.451Z,19.90
2018-05-11T17:05:40.550Z,19.70
2018-05-11T17:08:38.659Z,19.60
2018-05-11T17:11:37.493Z,19.30
2018-05-11T17:14:35.599Z,19.00
2018-05-11T17:17:35.569Z,19.10
2018-05-11T17:20:32.759Z,18.90
2018-05-11T17:23:30.559Z,18.90
2018-05-11T17:26:28.358Z,18.60
2018-05-11T17:29:26.353Z,18.50
2018-05-11T17:32:24.254Z,18.40
2018-05-11T17:35:21.982Z,18.40
2018-05-11T17:38:19.802Z,18.20
2018-05-11T17:41:17.763Z,18.10
2018-05-11T17:44:15.572Z,18.10
2018-05-11T17:47:13.435Z,18.00
2018-05-11T17:50:11.101Z,17.90
2018-05-11T17:53:08.156Z,17.90
2018-05-11T17:56:06.095Z,17.70
2018-05-11T17:59:03.044Z,17.50
2018-05-11T18:02:00.842Z,17.60
2018-05-11T18:04:58.473Z,17.60
2018-05-11T18:07:56.443Z,17.60
2018-05-11T18:10:54.683Z,17.30
2018-05-11T18:13:52.722Z,17.30
2018-05-11T18:16:50.674Z,17.30
2018-05-11T18:19:48.604Z,17.30
2018-05-11T18:22:47.768Z,17.20
2018-05-11T18:25:45.240Z,17.20
2018-05-11T18:28:43.268Z,17.20
2018-05-11T18:31:40.511Z,17.10
2018-05-11T18:34:38.473Z,17.00
2018-05-11T18:37:36.475Z,17.00
2018-05-11T18:40:34.551Z,17.00
2018-05-11T18:43:32.472Z,16.90
2018-05-11T18:46:30.310Z,16.90
2018-05-11T18:49:27.754Z,16.80
2018-05-11T18:52:26.088Z,16.70
2018-05-11T18:55:23.935Z,16.60
2018-05-11T18:58:20.953Z,16.50
2018-05-11T19:01:17.992Z,16.40
2018-05-11T19:04:15.927Z,16.40
2018-05-11T19:07:12.983Z,16.40
2018-05-11T19:10:10.116Z,16.40
2018-05-11T19:13:07.240Z,16.20
2018-05-11T19:16:05.175Z,16.20
2018-05-11T19:19:03.054Z,16.20
2018-05-11T19:22:00.356Z,16.10
2018-05-11T19:24:58.336Z,16.00
2018-05-11T19:27:55.473Z,16.10
2018-05-11T19:30:53.479Z,16.00
2018-05-11T19:33:50.777Z,16.00
2018-05-11T19:36:48.499Z,15.90
2018-05-11T19:39:46.485Z,15.80
2018-05-11T19:42:43.777Z,15.70
2018-05-11T19:45:41.045Z,15.70
2018-05-11T19:48:38.995Z,15.70
2018-05-11T19:51:36.849Z,15.70
2018-05-11T19:54:34.100Z,15.70
2018-05-11T19:57:32.970Z,15.60
2018-05-11T20:00:30.212Z,15.60
2018-05-11T20:03:27.885Z,15.40
2018-05-11T20:06:25.956Z,15.30
2018-05-11T20:09:23.140Z,15.30
2018-05-11T20:12:20.191Z,15.30
2018-05-11T20:15:18.055Z,15.30
2018-05-11T20:18:15.992Z,15.30
2018-05-11T20:21:14.095Z,15.30
2018-05-11T20:24:11.835Z,15.20
2018-05-11T20:27:09.505Z,15.10
2018-05-11T20:30:07.304Z,15.10
2018-05-11T20:33:05.167Z,15.10
2018-05-11T20:36:03.133Z,15.00
2018-05-11T20:39:00.289Z,15.00
2018-05-11T20:41:57.432Z,14.90
2018-05-11T20:44:55.096Z,14.90
2018-05-11T20:47:52.240Z,14.80
2018-05-11T20:50:51.450Z,14.70
2018-05-11T20:53:49.526Z,14.70
2018-05-11T20:56:47.484Z,14.80
2018-05-11T20:59:45.429Z,14.70
2018-05-11T21:02:43.468Z,14.70
2018-05-11T21:05:41.392Z,14.70
2018-05-11T21:08:39.267Z,14.70
2018-05-11T21:11:36.287Z,14.70
2018-05-11T21:14:34.278Z,14.70
2018-05-11T21:17:32.187Z,14.60
2018-05-11T21:20:31.143Z,14.60
2018-05-11T21:23:28.945Z,14.60
2018-05-11T21:26:26.186Z,14.50
2018-05-11T21:29:24.051Z,14.40
2018-05-11T21:32:21.036Z,14.40
2018-05-11T21:35:18.150Z,14.30
2018-05-11T21:38:16.078Z,14.30
2018-05-11T21:41:13.991Z,14.30
2018-05-11T21:44:12.118Z,14.30
2018-05-11T21:47:09.800Z,14.20
2018-05-11T21:50:07.020Z,14.10
2018-05-11T21:53:05.668Z,14.10
2018-05-11T21:56:03.259Z,14.10
2018-05-11T21:59:01.440Z,14.00
2018-05-11T22:02:00.133Z,14.00
2018-05-11T22:04:57.308Z,14.00
2018-05-11T22:07:55.193Z,14.00
2018-05-11T22:10:53.092Z,14.00
2018-05-11T22:13:51.151Z,14.00
2018-05-11T22:16:48.984Z,14.00
2018-05-11T22:19:48.164Z,13.90
2018-05-11T22:22:45.984Z,13.90
2018-05-11T22:25:43.186Z,13.80
2018-05-11T22:28:41.688Z,13.70
2018-05-11T22:31:40.189Z,13.50
2018-05-11T22:34:38.208Z,13.50
2018-05-11T22:37:35.148Z,13.60
2018-05-11T22:40:32.956Z,13.60
2018-05-11T22:43:30.861Z,13.50
2018-05-11T22:46:28.024Z,13.40
2018-05-11T22:49:25.784Z,13.40
2018-05-11T22:52:23.776Z,13.40
2018-05-11T22:55:21.749Z,13.40
2018-05-11T22:58:19.785Z,13.40
2018-05-11T23:01:16.824Z,13.40
2018-05-11T23:04:14.761Z,13.30
2018-05-11T23:07:13.736Z,13.30
2018-05-11T23:10:11.891Z,13.30
2018-05-11T23:13:10.004Z,13.20
2018-05-11T23:16:07.942Z,13.20
2018-05-11T23:19:05.601Z,13.20
2018-05-11T23:22:03.738Z,13.10
2018-05-11T23:25:01.906Z,13.10
2018-05-11T23:27:58.944Z,13.10
2018-05-11T23:30:56.103Z,13.10
2018-05-11T23:33:55.067Z,13.10
2018-05-11T23:36:52.930Z,13.10
2018-05-11T23:39:50.896Z,13.10
2018-05-11T23:42:47.893Z,13.10
2018-05-11T23:45:51.861Z,13.10
2018-05-11T23:48:49.951Z,13.00
2018-05-11T23:51:47.785Z,13.00
2018-05-11T23:54:45.556Z,13.10
2018-05-11T23:57:44.340Z,13.10
